Time;durP1;ratioP1;P1;durP2;ratioP2;P2;SDS_P1;SDS_P2;PMS_P1;PMS_P2;Temp;Humidity;BMP_temperature;BMP_pressure;BME280_temperature;BME280_humidity;BME280_pressure;Samples;Min_cycle;Max_cycle;Signal;HPM_P1;HPM_P2
2022/04/09 00:00:40;;;;;;;9.00;5.10;;;;;;;5.55;66.18;98031.16;106300;1268;138139;-72
2022/04/09 00:03:12;;;;;;;9.20;5.30;;;;;;;5.52;66.42;98024.05;106442;1268;96480;-71
2022/04/09 00:05:44;;;;;;;9.20;5.30;;;;;;;5.50;66.76;98018.46;106392;1268;138304;-72
2022/04/09 00:08:17;;;;;;;8.10;5.50;;;;;;;5.49;66.84;98012.83;106518;1267;107809;-73
2022/04/09 00:10:49;;;;;;;7.40;5.10;;;;;;;5.45;66.87;98008.02;106463;1267;107702;-74
2022/04/09 00:13:21;;;;;;;10.70;6.10;;;;;;;5.41;66.89;98005.44;106314;1268;138539;-72
2022/04/09 00:15:53;;;;;;;8.70;5.70;;;;;;;5.38;67.17;98000.23;106543;1268;96555;-73
2022/04/09 00:18:25;;;;;;;9.10;5.30;;;;;;;5.37;67.07;97998.38;107140;1268;138646;-72
2022/04/09 00:20:57;;;;;;;9.20;6.10;;;;;;;5.36;67.29;97996.88;107853;1268;109080;-72
2022/04/09 00:23:29;;;;;;;8.10;5.40;;;;;;;5.36;67.70;97995.85;107844;1268;138633;-73
2022/04/09 00:26:12;;;;;;;9.20;5.50;;;;;;;5.36;68.00;97990.00;107101;1268;96577;-72
2022/04/09 00:28:44;;;;;;;7.60;5.60;;;;;;;5.34;67.70;97990.23;106831;1268;96556;-72
2022/04/09 00:31:16;;;;;;;10.40;6.30;;;;;;;5.33;68.28;97986.31;107239;1268;140424;-73
2022/04/09 00:33:48;;;;;;;9.80;5.80;;;;;;;5.32;69.03;97983.27;106497;1268;108929;-72
2022/04/09 00:36:20;;;;;;;9.70;6.40;;;;;;;5.29;68.45;97978.26;106290;1268;137748;-73
2022/04/09 00:38:52;;;;;;;10.70;6.60;;;;;;;5.28;68.51;97977.46;106388;1268;96481;-72
2022/04/09 00:41:26;;;;;;;10.60;6.50;;;;;;;5.26;68.92;97970.83;106498;1267;137836;-72
2022/04/09 00:43:58;;;;;;;11.00;7.40;;;;;;;5.24;69.09;97972.99;107974;1267;112879;-73
2022/04/09 00:46:29;;;;;;;10.20;7.10;;;;;;;5.21;69.12;97975.54;108041;1267;107860;-73
2022/04/09 00:49:01;;;;;;;11.10;7.50;;;;;;;5.19;69.46;97969.10;107152;1267;138755;-73
2022/04/09 00:51:35;;;;;;;11.90;7.30;;;;;;;5.15;69.56;97974.75;106550;1267;96497;-73
2022/04/09 00:54:09;;;;;;;15.40;8.00;;;;;;;5.13;69.49;97974.69;106415;1266;137815;-72
2022/04/09 00:56:43;;;;;;;14.70;8.40;;;;;;;5.11;70.13;97972.55;106633;1268;109198;-73
2022/04/09 00:59:17;;;;;;;15.70;8.40;;;;;;;5.10;69.86;97974.00;106452;1268;138464;-72
2022/04/09 01:01:53;;;;;;;12.70;8.40;;;;;;;5.09;70.05;97978.53;106528;1267;109170;-73
2022/04/09 01:04:26;;;;;;;12.20;7.60;;;;;;;5.07;70.10;97977.76;106488;1267;97110;-72
2022/04/09 01:06:59;;;;;;;15.30;9.00;;;;;;;5.06;70.32;97980.90;106311;1268;138533;-71
2022/04/09 01:09:31;;;;;;;12.10;7.80;;;;;;;5.05;70.71;97977.17;106561;1268;111248;-72
2022/04/09 01:12:05;;;;;;;12.80;8.70;;;;;;;5.05;70.82;97980.11;106401;1268;138171;-72
2022/04/09 01:14:38;;;;;;;15.90;9.50;;;;;;;5.02;71.05;97980.20;106570;1267;107857;-73
2022/04/09 01:17:10;;;;;;;12.80;9.00;;;;;;;5.01;71.09;97981.64;106478;1268;138603;-72
2022/04/09 01:19:42;;;;;;;17.00;9.80;;;;;;;4.98;71.84;97980.38;106279;1268;96399;-72
2022/04/09 01:22:14;;;;;;;12.90;9.00;;;;;;;4.96;71.88;97980.29;106444;1267;110211;-71
2022/04/09 01:24:47;;;;;;;13.50;8.80;;;;;;;4.94;71.89;97988.01;106242;1268;138141;-73
2022/04/09 01:27:19;;;;;;;14.20;9.80;;;;;;;4.91;72.11;97986.58;106482;1268;108846;-74
2022/04/09 01:29:51;;;;;;;14.10;9.30;;;;;;;4.89;72.92;97993.56;106537;1268;138064;-73
2022/04/09 01:32:23;;;;;;;13.90;8.90;;;;;;;4.88;72.70;97990.50;106486;1268;96271;-72
2022/04/09 01:34:55;;;;;;;15.20;9.50;;;;;;;4.86;72.82;97993.52;106546;1267;111669;-72
2022/04/09 01:37:28;;;;;;;12.70;9.40;;;;;;;4.85;72.75;97993.23;106210;1268;138757;-73
2022/04/09 01:40:00;;;;;;;14.40;9.60;;;;;;;4.85;73.21;97988.21;106397;1268;108944;-72
2022/04/09 01:42:36;;;;;;;16.60;10.10;;;;;;;4.83;73.75;97977.10;106369;1268;137942;-72
2022/04/09 01:45:10;;;;;;;16.70;10.60;;;;;;;4.81;73.77;97970.98;106549;1267;96334;-72
2022/04/09 01:47:43;;;;;;;15.90;10.40;;;;;;;4.79;74.18;97985.55;106416;1267;138465;-72
2022/04/09 01:50:15;;;;;;;14.70;9.80;;;;;;;4.76;74.22;97985.52;106435;1268;108958;-72
2022/04/09 01:52:47;;;;;;;19.00;11.50;;;;;;;4.74;74.15;97985.46;106454;1268;108804;-70
2022/04/09 01:55:19;;;;;;;16.30;10.30;;;;;;;4.72;74.09;97984.35;106391;1268;139772;-71
2022/04/09 01:57:53;;;;;;;16.60;11.10;;;;;;;4.71;74.66;97988.52;106500;1268;96660;-72
2022/04/09 02:00:29;;;;;;;16.00;11.00;;;;;;;4.69;74.94;97986.36;105872;1268;616317;-72
2022/04/09 02:03:01;;;;;;;16.70;11.20;;;;;;;4.67;75.58;97983.18;107071;1267;108701;-72
2022/04/09 02:05:34;;;;;;;16.10;11.10;;;;;;;4.65;75.81;97989.11;106337;1267;138170;-71
2022/04/09 02:08:08;;;;;;;14.40;11.00;;;;;;;4.63;75.55;97982.85;106442;1268;96525;-73
2022/04/09 02:10:40;;;;;;;15.90;11.30;;;;;;;4.60;75.77;97972.84;106567;1268;96500;-72
2022/04/09 02:13:18;;;;;;;15.10;10.50;;;;;;;4.59;75.72;97969.77;106177;1267;138429;-72
2022/04/09 02:15:50;;;;;;;15.40;11.10;;;;;;;4.57;75.94;97969.88;106641;1268;108837;-72
2022/04/09 02:18:31;;;;;;;15.60;10.70;;;;;;;4.54;76.14;97965.86;106598;1268;140129;-72
2022/04/09 02:21:03;;;;;;;16.20;10.40;;;;;;;4.53;75.76;97967.98;106540;1268;96481;-71
2022/04/09 02:23:36;;;;;;;15.10;10.60;;;;;;;4.52;75.65;97967.52;106585;1268;139113;-72
2022/04/09 02:26:08;;;;;;;13.70;10.00;;;;;;;4.51;76.11;97962.39;106528;1268;111319;-73
2022/04/09 02:28:41;;;;;;;12.60;10.00;;;;;;;4.51;75.82;97963.25;106619;1268;110627;-72
2022/04/09 02:31:13;;;;;;;13.70;10.20;;;;;;;4.50;76.15;97965.52;107814;1268;138318;-71
2022/04/09 02:33:45;;;;;;;14.20;9.70;;;;;;;4.49;76.62;97966.08;106516;1268;96501;-72
2022/04/09 02:36:18;;;;;;;15.80;9.80;;;;;;;4.48;76.45;97965.41;106400;1267;137761;-73
2022/04/09 02:38:50;;;;;;;14.80;10.30;;;;;;;4.48;76.52;97967.48;106518;1268;111354;-72
2022/04/09 02:41:21;;;;;;;13.00;9.90;;;;;;;4.47;76.51;97965.45;106226;1268;138692;-72
2022/04/09 02:43:54;;;;;;;14.10;10.00;;;;;;;4.47;76.66;97971.64;106502;1266;107396;-72
2022/04/09 02:46:26;;;;;;;14.60;10.50;;;;;;;4.47;76.83;97966.67;106562;1268;96474;-72
2022/04/09 02:48:59;;;;;;;15.30;10.90;;;;;;;4.46;76.79;97958.80;106459;1268;138077;-72
2022/04/09 02:51:32;;;;;;;14.50;11.30;;;;;;;4.45;77.12;97965.40;106457;1268;111931;-72
2022/04/09 02:54:04;;;;;;;14.40;11.00;;;;;;;4.43;76.97;97968.40;106326;1268;137970;-72
2022/04/09 02:56:36;;;;;;;16.80;10.90;;;;;;;4.42;77.48;97983.60;106503;1268;105497;-73
2022/04/09 02:59:09;;;;;;;13.50;11.00;;;;;;;4.41;77.30;97982.42;106306;1268;139198;-71
2022/04/09 03:01:43;;;;;;;14.30;10.70;;;;;;;4.39;77.60;97969.77;107694;1268;96555;-72
2022/04/09 03:04:16;;;;;;;15.20;10.80;;;;;;;4.38;77.77;97970.88;107102;1268;110990;-72
2022/04/09 03:06:48;;;;;;;13.80;10.10;;;;;;;4.37;78.19;97966.63;106386;1268;138592;-72
2022/04/09 03:09:20;;;;;;;13.50;10.00;;;;;;;4.36;78.21;97970.11;106536;1267;107411;-71
2022/04/09 03:11:52;;;;;;;12.50;9.70;;;;;;;4.34;77.96;97973.29;106259;1268;138132;-73
2022/04/09 03:14:24;;;;;;;11.70;9.60;;;;;;;4.33;78.07;97979.90;106440;1268;97022;-72
2022/04/09 03:16:57;;;;;;;13.00;9.60;;;;;;;4.31;78.14;97980.46;106538;1268;110071;-72
2022/04/09 03:19:29;;;;;;;14.00;9.80;;;;;;;4.30;77.89;97984.63;106471;1268;137657;-72
2022/04/09 03:22:01;;;;;;;11.40;9.50;;;;;;;4.29;78.21;97983.98;106816;1268;107713;-72
2022/04/09 03:24:34;;;;;;;14.00;9.00;;;;;;;4.28;78.30;97981.10;106339;1268;139363;-72
2022/04/09 03:27:07;;;;;;;12.60;9.50;;;;;;;4.28;78.03;97980.60;106581;1267;96477;-72
2022/04/09 03:29:41;;;;;;;10.60;8.00;;;;;;;4.28;78.39;97986.79;106389;1268;137803;-71
2022/04/09 03:32:13;;;;;;;10.60;9.00;;;;;;;4.27;78.04;97984.08;106505;1268;108889;-72
2022/04/09 03:34:45;;;;;;;10.30;9.00;;;;;;;4.27;78.26;97991.29;106401;1268;108808;-71
2022/04/09 03:37:17;;;;;;;12.20;9.30;;;;;;;4.26;78.46;97988.22;106495;1268;137868;-71
2022/04/09 03:39:50;;;;;;;14.00;10.10;;;;;;;4.27;78.31;97985.11;106628;1267;96554;-72
2022/04/09 03:42:22;;;;;;;10.80;9.20;;;;;;;4.29;78.43;97983.27;106420;1268;137939;-72
2022/04/09 03:44:58;;;;;;;13.70;9.80;;;;;;;4.30;78.50;97988.77;106335;1267;109068;-72
2022/04/09 03:47:32;;;;;;;12.50;9.40;;;;;;;4.29;78.72;97990.16;106211;1268;137921;-72
2022/04/09 03:50:07;;;;;;;12.50;9.80;;;;;;;4.28;78.87;97992.27;106419;1268;96478;-72
2022/04/09 03:52:40;;;;;;;12.20;9.50;;;;;;;4.28;78.80;97994.35;106472;1268;96976;-73
2022/04/09 03:55:13;;;;;;;14.10;9.70;;;;;;;4.28;78.55;97990.58;107838;1268;138931;-71
2022/04/09 03:57:45;;;;;;;12.30;9.40;;;;;;;4.27;78.37;97996.30;107109;1267;109174;-70
2022/04/09 04:00:18;;;;;;;11.30;9.80;;;;;;;4.27;78.84;97995.41;106275;1268;137926;-72
2022/04/09 04:02:51;;;;;;;12.70;9.40;;;;;;;4.26;78.69;98001.83;107043;1268;96674;-72
2022/04/09 04:05:25;;;;;;;11.40;9.50;;;;;;;4.26;78.81;98001.48;106330;1270;137854;-73
2022/04/09 04:07:58;;;;;;;13.20;9.60;;;;;;;4.27;78.90;97999.22;106392;1268;110697;-73
2022/04/09 04:10:31;;;;;;;12.70;9.10;;;;;;;4.29;78.83;97999.99;106414;1268;108112;-72
2022/04/09 04:13:12;;;;;;;10.60;8.40;;;;;;;4.30;78.79;98007.50;106272;1268;138137;-72
2022/04/09 04:15:45;;;;;;;11.20;8.60;;;;;;;4.31;79.18;98009.02;106441;1268;96474;-72
2022/04/09 04:18:17;;;;;;;12.20;8.70;;;;;;;4.31;78.90;98011.77;106460;1268;137667;-71
2022/04/09 04:20:52;;;;;;;11.80;9.10;;;;;;;4.30;78.76;98017.65;106484;1267;111217;-73
2022/04/09 04:23:25;;;;;;;11.30;8.60;;;;;;;4.30;78.74;98023.48;106618;1268;138042;-72
2022/04/09 04:25:58;;;;;;;11.20;8.90;;;;;;;4.30;78.68;98027.98;107935;1268;110633;-74
2022/04/09 04:28:31;;;;;;;9.60;7.70;;;;;;;4.31;79.06;98031.22;106782;1268;96493;-73
2022/04/09 04:31:04;;;;;;;11.50;9.10;;;;;;;4.33;78.86;98038.35;106327;1268;137435;-73
2022/04/09 04:33:38;;;;;;;9.90;8.80;;;;;;;4.39;78.98;98044.45;106430;1268;111047;-72
2022/04/09 04:36:11;;;;;;;11.90;10.10;;;;;;;4.46;79.02;98047.77;106290;1268;138589;-73
2022/04/09 04:38:45;;;;;;;12.60;9.10;;;;;;;4.50;78.96;98053.63;106441;1268;108757;-73
2022/04/09 04:41:17;;;;;;;11.40;9.70;;;;;;;4.55;78.89;98061.85;106246;1268;138198;-72
2022/04/09 04:43:52;;;;;;;15.00;10.00;;;;;;;4.60;79.15;98062.65;106445;1268;96478;-73
2022/04/09 04:46:26;;;;;;;15.30;10.50;;;;;;;4.65;78.93;98063.61;106391;1268;110109;-72
2022/04/09 04:48:59;;;;;;;14.70;11.90;;;;;;;4.70;78.98;98059.65;107456;1268;138213;-73
2022/04/09 04:51:31;;;;;;;16.20;12.80;;;;;;;4.75;79.09;98060.82;107916;1268;106229;-73
2022/04/09 04:54:03;;;;;;;13.10;10.70;;;;;;;4.79;78.96;98059.39;107817;1268;138940;-73
2022/04/09 04:56:36;;;;;;;12.60;9.60;;;;;;;4.82;78.89;98052.20;107737;1268;94460;-72
2022/04/09 04:59:08;;;;;;;12.90;9.20;;;;;;;4.83;78.48;98050.59;106332;1268;137821;-72
2022/04/09 05:01:42;;;;;;;10.90;8.30;;;;;;;4.86;78.54;98058.94;106405;1268;108361;-73
2022/04/09 05:04:14;;;;;;;11.30;8.10;;;;;;;4.88;78.31;98062.48;106442;1268;108636;-73
2022/04/09 05:06:53;;;;;;;9.90;7.30;;;;;;;4.89;78.20;98062.27;106644;1270;137869;-71
2022/04/09 05:09:26;;;;;;;11.10;7.60;;;;;;;4.92;78.09;98073.02;106753;1268;96506;-72
2022/04/09 05:12:00;;;;;;;9.60;7.60;;;;;;;4.95;77.91;98080.58;106309;1268;138239;-73
2022/04/09 05:14:42;;;;;;;10.20;7.40;;;;;;;4.96;77.99;98088.48;106422;1268;108808;-72
2022/04/09 05:17:17;;;;;;;8.70;6.90;;;;;;;4.95;77.90;98095.77;106298;1268;138827;-73
2022/04/09 05:19:49;;;;;;;8.90;6.80;;;;;;;4.94;77.63;98100.80;106437;1270;96548;-73
2022/04/09 05:22:21;;;;;;;6.80;5.90;;;;;;;4.92;77.29;98103.98;106520;1268;96493;-73
2022/04/09 05:25:00;;;;;;;5.80;4.50;;;;;;;4.89;76.86;98112.02;106318;1268;138353;-73
2022/04/09 05:27:32;;;;;;;6.40;4.50;;;;;;;4.82;76.50;98106.98;107445;1271;108853;-72
2022/04/09 05:30:09;;;;;;;5.00;3.80;;;;;;;4.82;76.33;98106.27;106425;1268;138209;-72
2022/04/09 05:32:44;;;;;;;6.70;4.70;;;;;;;4.85;76.30;98103.94;107954;1268;94919;-73
2022/04/09 05:35:17;;;;;;;5.40;4.30;;;;;;;4.81;76.15;98104.43;107860;1268;138207;-70
2022/04/09 05:37:53;;;;;;;6.70;5.20;;;;;;;4.78;76.06;98102.14;107954;1268;111351;-72
2022/04/09 05:40:28;;;;;;;7.60;4.60;;;;;;;4.78;76.37;98096.98;107940;1268;107836;-72
2022/04/09 05:43:02;;;;;;;5.50;4.60;;;;;;;4.84;76.42;98092.77;107864;1267;137571;-71
2022/04/09 05:45:34;;;;;;;6.90;5.00;;;;;;;4.89;75.82;98092.76;107885;1268;94925;-72
2022/04/09 05:48:07;;;;;;;5.10;4.30;;;;;;;4.90;75.74;98093.20;107870;1268;138229;-73
2022/04/09 05:50:46;;;;;;;5.70;4.20;;;;;;;4.93;75.58;98095.51;107318;1268;110000;-71
2022/04/09 05:53:18;;;;;;;7.20;4.80;;;;;;;4.96;75.65;98101.21;106337;1268;138097;-71
2022/04/09 05:55:51;;;;;;;8.10;5.30;;;;;;;5.01;75.61;98107.38;106535;1268;108816;-72
2022/04/09 05:58:23;;;;;;;7.60;5.00;;;;;;;5.05;75.56;98107.55;106516;1268;96464;-72
2022/04/09 06:01:01;;;;;;;6.30;5.30;;;;;;;5.11;75.30;98104.17;106360;1268;137558;-72
2022/04/09 06:03:38;;;;;;;6.00;4.90;;;;;;;5.17;75.19;98098.39;106471;1268;111357;-73
2022/04/09 06:06:11;;;;;;;6.20;5.20;;;;;;;5.22;75.15;98102.31;106314;1268;138247;-73
2022/04/09 06:08:52;;;;;;;6.50;5.20;;;;;;;5.26;74.82;98102.80;106441;1268;106824;-72
2022/04/09 06:11:47;;;;;;;7.10;5.60;;;;;;;5.30;74.80;98106.08;106334;1268;138085;-72
2022/04/09 06:14:27;;;;;;;6.40;5.40;;;;;;;5.35;74.70;98114.28;106415;1268;96395;-73
2022/04/09 06:17:02;;;;;;;7.90;6.00;;;;;;;5.39;74.58;98121.19;106370;1268;110834;-73
2022/04/09 06:19:36;;;;;;;6.80;5.30;;;;;;;5.36;74.40;98128.16;106263;1268;137764;-72
2022/04/09 06:22:08;;;;;;;8.90;6.40;;;;;;;5.35;74.69;98135.14;106345;1268;108854;-72
2022/04/09 06:24:42;;;;;;;7.50;5.80;;;;;;;5.31;74.49;98141.20;106445;1268;137771;-73
2022/04/09 06:27:15;;;;;;;9.10;6.70;;;;;;;5.29;74.49;98136.42;106500;1268;96507;-72
2022/04/09 06:29:52;;;;;;;9.70;7.00;;;;;;;5.35;74.77;98131.17;106340;1268;138235;-71
2022/04/09 06:32:24;;;;;;;8.20;6.80;;;;;;;5.36;74.80;98131.30;106381;1268;110078;-71
2022/04/09 06:34:57;;;;;;;9.70;7.40;;;;;;;5.35;74.80;98133.38;106391;1271;109097;-71
2022/04/09 06:37:29;;;;;;;12.10;8.30;;;;;;;5.37;75.17;98131.73;106353;1268;137566;-71
2022/04/09 06:40:02;;;;;;;10.80;8.20;;;;;;;5.41;75.26;98135.07;106360;1271;96494;-72
2022/04/09 06:42:34;;;;;;;10.70;8.60;;;;;;;5.43;75.09;98133.55;106367;1268;137895;-71
2022/04/09 06:45:26;;;;;;;9.80;8.20;;;;;;;5.53;75.21;98135.35;106223;1268;108696;-72
2022/04/09 06:48:23;;;;;;;10.30;8.60;;;;;;;5.62;74.97;98141.70;106227;1268;138318;-71
2022/04/09 06:51:14;;;;;;;12.80;8.80;;;;;;;5.76;75.38;98140.31;106425;1271;96925;-72
2022/04/09 06:53:48;;;;;;;10.00;8.20;;;;;;;5.84;74.97;98139.27;106345;1268;138263;-72
2022/04/09 06:56:20;;;;;;;11.50;8.40;;;;;;;5.93;74.36;98143.68;106422;1268;110630;-71
2022/04/09 06:58:52;;;;;;;9.50;7.60;;;;;;;6.08;74.23;98140.23;106474;1268;108550;-72
2022/04/09 07:01:25;;;;;;;11.60;8.00;;;;;;;6.23;73.94;98140.59;107795;1268;137783;-72
2022/04/09 07:04:00;;;;;;;9.70;7.80;;;;;;;6.43;73.57;98145.09;106822;1268;96642;-72
2022/04/09 07:06:32;;;;;;;12.30;7.70;;;;;;;6.62;73.59;98149.33;106225;1268;137603;-72
2022/04/09 07:09:05;;;;;;;10.50;7.60;;;;;;;6.73;73.08;98152.43;106341;1268;111248;-71
2022/04/09 07:11:37;;;;;;;11.50;7.40;;;;;;;6.73;72.54;98162.83;106200;1268;138276;-71
2022/04/09 07:14:09;;;;;;;9.90;6.80;;;;;;;6.69;72.23;98169.89;106316;1269;108100;-71
2022/04/09 07:16:41;;;;;;;10.50;7.80;;;;;;;6.72;72.22;98173.94;106354;1268;96566;-71
2022/04/09 07:19:13;;;;;;;10.70;8.00;;;;;;;6.76;72.03;98177.84;106176;1271;138009;-71
2022/04/09 07:21:47;;;;;;;10.50;7.30;;;;;;;6.84;71.94;98184.88;106408;1268;111124;-72
2022/04/09 07:24:21;;;;;;;10.40;7.10;;;;;;;6.87;71.72;98192.84;106246;1268;138016;-72
2022/04/09 07:26:53;;;;;;;11.70;7.70;;;;;;;6.92;71.59;98201.21;106331;1268;107485;-73
2022/04/09 07:29:25;;;;;;;11.00;8.00;;;;;;;7.03;71.49;98211.04;106228;1268;138281;-72
2022/04/09 07:31:57;;;;;;;11.20;7.90;;;;;;;7.12;71.36;98216.13;106322;1268;96542;-72
2022/04/09 07:34:29;;;;;;;11.30;7.20;;;;;;;7.24;71.41;98226.05;106343;1268;111067;-70
2022/04/09 07:37:01;;;;;;;12.20;7.30;;;;;;;7.39;70.86;98234.64;106223;1268;138001;-71
2022/04/09 07:39:34;;;;;;;12.70;7.90;;;;;;;7.51;70.68;98236.44;106335;1268;109165;-72
2022/04/09 07:42:07;;;;;;;9.40;7.60;;;;;;;7.66;70.47;98241.02;106223;1270;138752;-72
2022/04/09 07:44:39;;;;;;;13.90;8.70;;;;;;;7.75;69.47;98240.87;106315;1270;96469;-72
2022/04/09 07:47:11;;;;;;;11.30;8.10;;;;;;;7.84;69.32;98243.48;106328;1268;110092;-72
2022/04/09 07:49:44;;;;;;;14.30;9.40;;;;;;;7.88;69.00;98245.67;106279;1268;137138;-72
2022/04/09 07:52:16;;;;;;;16.00;8.90;;;;;;;7.94;68.77;98249.55;106299;1267;110170;-73
2022/04/09 07:54:48;;;;;;;10.70;8.70;;;;;;;8.05;68.60;98257.28;106170;1268;137728;-72
2022/04/09 07:57:20;;;;;;;11.30;7.90;;;;;;;8.18;68.39;98270.93;106373;1268;96462;-71
2022/04/09 07:59:53;;;;;;;12.60;8.10;;;;;;;8.30;67.93;98275.14;106812;1268;137630;-71
2022/04/09 08:02:25;;;;;;;11.30;8.30;;;;;;;8.35;67.58;98281.27;107772;1268;108743;-72
2022/04/09 08:04:57;;;;;;;12.40;9.00;;;;;;;8.39;67.29;98286.27;106450;1268;108376;-72
2022/04/09 08:07:29;;;;;;;12.40;8.50;;;;;;;8.42;67.13;98287.98;106275;1268;137940;-72
2022/04/09 08:10:01;;;;;;;13.80;8.10;;;;;;;8.42;66.82;98295.27;106488;1268;96546;-73
2022/04/09 08:12:33;;;;;;;12.20;8.50;;;;;;;8.38;66.27;98298.10;106185;1270;137407;-73
2022/04/09 08:15:07;;;;;;;14.60;8.50;;;;;;;8.31;66.04;98306.59;106343;1268;107353;-74
2022/04/09 08:17:40;;;;;;;13.80;9.30;;;;;;;8.29;65.95;98317.09;106910;1268;138327;-72
2022/04/09 08:20:14;;;;;;;16.80;8.70;;;;;;;8.32;65.87;98322.30;106323;1268;96479;-73
2022/04/09 08:22:49;;;;;;;12.70;8.10;;;;;;;8.35;65.40;98325.83;107554;1268;94714;-74
2022/04/09 08:25:21;;;;;;;12.50;7.60;;;;;;;8.40;65.45;98329.14;106334;1268;138000;-72
2022/04/09 08:27:53;;;;;;;11.80;8.30;;;;;;;8.45;65.21;98334.27;107913;1268;106743;-73
2022/04/09 08:30:26;;;;;;;10.90;7.30;;;;;;;8.46;64.70;98334.02;107690;1268;137066;-75
2022/04/09 08:33:01;;;;;;;11.80;7.90;;;;;;;8.48;64.75;98334.07;107884;1268;94946;-75
2022/04/09 08:35:34;;;;;;;10.20;7.20;;;;;;;8.57;64.11;98337.27;107847;1268;137284;-75
2022/04/09 08:38:07;;;;;;;13.50;7.00;;;;;;;8.65;63.77;98345.98;107903;1267;111336;-75
2022/04/09 08:40:39;;;;;;;14.10;7.70;;;;;;;8.73;63.38;98339.83;107302;1268;107803;-74
2022/04/09 08:43:12;;;;;;;12.60;6.40;;;;;;;8.80;63.36;98350.36;106323;1268;137396;-74
2022/04/09 08:45:44;;;;;;;11.80;7.40;;;;;;;8.90;63.34;98355.86;106763;1267;96343;-74
2022/04/09 08:48:20;;;;;;;16.90;7.40;;;;;;;8.96;63.33;98358.67;106714;1268;137224;-76
2022/04/09 08:50:53;;;;;;;15.50;8.10;;;;;;;8.99;63.01;98364.41;106616;1268;110635;-75
2022/04/09 08:53:38;;;;;;;11.80;7.50;;;;;;;8.93;62.54;98365.08;107641;1268;137527;-74
2022/04/09 08:56:10;;;;;;;13.00;7.40;;;;;;;8.89;62.23;98368.96;107697;1267;108371;-75
2022/04/09 08:58:42;;;;;;;15.70;8.10;;;;;;;8.84;61.95;98362.81;107998;1266;94974;-79
2022/04/09 09:01:14;;;;;;;13.40;7.60;;;;;;;8.84;62.00;98366.23;107948;1267;137510;-74
2022/04/09 09:03:47;;;;;;;12.40;8.10;;;;;;;8.85;61.91;98365.89;107081;1267;111309;-73
2022/04/09 09:06:30;;;;;;;12.40;7.90;;;;;;;8.92;62.10;98365.64;107243;1267;137720;-76
2022/04/09 09:09:04;;;;;;;16.60;8.90;;;;;;;9.12;61.80;98362.63;108039;1266;108880;-74
2022/04/09 09:11:49;;;;;;;12.60;8.40;;;;;;;9.36;61.24;98358.30;107036;1268;137522;-71
2022/04/09 09:14:30;;;;;;;14.20;8.30;;;;;;;9.63;60.56;98357.11;107743;1266;95164;-73
2022/04/09 09:17:04;;;;;;;15.40;8.40;;;;;;;9.89;60.13;98360.91;107557;1268;110331;-73
2022/04/09 09:19:45;;;;;;;14.40;8.20;;;;;;;10.14;59.60;98368.98;107962;1266;138950;-74
2022/04/09 09:22:19;;;;;;;13.30;8.00;;;;;;;10.32;58.88;98379.94;107446;1267;108821;-73
2022/04/09 09:25:04;;;;;;;14.30;8.00;;;;;;;10.35;58.06;98386.67;106249;1268;138881;-71
2022/04/09 09:27:40;;;;;;;15.40;9.00;;;;;;;10.41;58.01;98404.56;107281;1267;96494;-71
2022/04/09 09:30:14;;;;;;;14.60;9.60;;;;;;;10.38;57.85;98416.04;107882;1268;137805;-75
2022/04/09 09:32:46;;;;;;;13.90;8.40;;;;;;;10.36;58.07;98415.65;106773;1268;107688;-72
2022/04/09 09:35:18;;;;;;;14.50;8.80;;;;;;;10.37;57.83;98412.10;107928;1267;107627;-73
2022/04/09 09:37:50;;;;;;;14.00;9.40;;;;;;;10.38;58.01;98406.80;107844;1267;137710;-73
2022/04/09 09:40:34;;;;;;;16.80;9.70;;;;;;;10.92;58.12;98396.65;107995;1266;95177;-73
2022/04/09 09:43:17;;;;;;;12.80;8.80;;;;;;;11.67;57.77;98398.11;107831;1267;137356;-78
2022/04/09 09:45:50;;;;;;;16.20;9.60;;;;;;;12.09;56.84;98403.35;107870;1268;109258;-74
2022/04/09 09:48:25;;;;;;;13.20;9.10;;;;;;;12.47;55.76;98405.75;107490;1268;138766;-72
2022/04/09 09:50:58;;;;;;;13.00;8.30;;;;;;;13.09;54.12;98406.96;107907;1267;94596;-73
2022/04/09 09:53:33;;;;;;;15.30;8.20;;;;;;;13.32;52.51;98413.56;107757;1268;139965;-73
2022/04/09 09:56:07;;;;;;;13.60;8.20;;;;;;;13.29;50.62;98407.27;106776;1267;109191;-74
2022/04/09 09:58:40;;;;;;;12.40;8.10;;;;;;;13.38;51.08;98410.30;106345;1267;108964;-72
2022/04/09 10:01:21;;;;;;;14.40;7.40;;;;;;;13.64;49.17;98414.14;107332;1268;137587;-73
2022/04/09 10:03:54;;;;;;;7.90;6.30;;;;;;;13.98;48.78;98426.85;107927;1268;94846;-69
2022/04/09 10:06:27;;;;;;;10.40;6.30;;;;;;;14.24;49.17;98432.55;107504;1267;137141;-71
2022/04/09 10:09:00;;;;;;;10.00;6.30;;;;;;;14.62;48.10;98439.48;107883;1267;112668;-69
2022/04/09 10:11:35;;;;;;;9.30;5.70;;;;;;;14.93;46.92;98434.26;107844;1268;140366;-70
2022/04/09 10:14:08;;;;;;;11.40;5.70;;;;;;;15.31;46.57;98427.86;107917;1265;108692;-70
2022/04/09 10:16:44;;;;;;;8.50;5.70;;;;;;;15.30;45.30;98441.41;107950;1267;94607;-71
2022/04/09 10:19:18;;;;;;;9.60;5.00;;;;;;;14.87;44.43;98452.01;107778;1267;138325;-71
2022/04/09 10:21:51;;;;;;;8.80;5.00;;;;;;;14.42;44.50;98449.17;107948;1267;110643;-70
2022/04/09 10:24:27;;;;;;;9.10;5.10;;;;;;;14.03;44.83;98456.31;107567;1267;137402;-69
2022/04/09 10:27:02;;;;;;;11.70;5.40;;;;;;;13.67;44.60;98469.50;106544;1268;108847;-70
2022/04/09 10:29:50;;;;;;;12.00;5.40;;;;;;;13.38;44.72;98485.20;106916;1268;141042;-69
2022/04/09 10:32:43;;;;;;;9.90;5.30;;;;;;;13.03;44.37;98477.02;108001;1268;94398;-69
2022/04/09 10:35:37;;;;;;;12.00;5.80;;;;;;;12.70;45.34;98467.10;107981;1267;111288;-70
2022/04/09 10:38:21;;;;;;;13.50;5.90;;;;;;;12.52;45.85;98476.86;107859;1268;137325;-69
2022/04/09 10:41:24;;;;;;;10.60;5.30;;;;;;;12.56;45.78;98483.92;107864;1267;108826;-69
2022/04/09 10:44:03;;;;;;;8.50;4.70;;;;;;;12.68;45.82;98491.08;107750;1267;138231;-70
2022/04/09 10:46:38;;;;;;;9.50;5.00;;;;;;;12.83;45.60;98500.22;107874;1267;94895;-69
2022/04/09 10:49:22;;;;;;;9.70;4.50;;;;;;;13.06;45.62;98498.98;106721;1267;137127;-74
2022/04/09 10:52:06;;;;;;;9.30;4.60;;;;;;;13.27;44.74;98500.11;106278;1268;108663;-75
2022/04/09 10:54:38;;;;;;;10.00;4.70;;;;;;;13.41;44.49;98500.39;106142;1268;138405;-71
2022/04/09 10:57:21;;;;;;;9.20;4.70;;;;;;;13.47;44.05;98510.75;106279;1268;97996;-73
2022/04/09 11:00:00;;;;;;;8.30;4.40;;;;;;;13.58;43.75;98517.83;107470;1267;138141;-76
2022/04/09 11:02:32;;;;;;;7.70;4.10;;;;;;;13.60;43.45;98514.20;107219;1267;110042;-74
2022/04/09 11:05:21;;;;;;;7.00;3.70;;;;;;;13.56;42.88;98511.63;106457;1268;107725;-73
2022/04/09 11:08:10;;;;;;;6.80;4.40;;;;;;;13.55;43.15;98513.15;106135;1268;137379;-75
2022/04/09 11:10:43;;;;;;;6.30;4.10;;;;;;;13.50;42.74;98516.65;106398;1268;96698;-75
2022/04/09 11:13:15;;;;;;;8.90;3.90;;;;;;;13.47;42.71;98531.36;106193;1267;137140;-73
2022/04/09 11:15:56;;;;;;;7.90;3.40;;;;;;;13.36;41.44;98533.34;107485;1267;111058;-73
2022/04/09 11:18:28;;;;;;;8.80;3.40;;;;;;;13.28;41.46;98537.89;107808;1268;137489;-74
2022/04/09 11:21:00;;;;;;;5.80;3.40;;;;;;;13.35;41.25;98545.70;107925;1267;108968;-75
2022/04/09 11:23:32;;;;;;;8.00;3.60;;;;;;;13.30;40.87;98550.16;106732;1268;96493;-68
2022/04/09 11:26:04;;;;;;;4.80;3.10;;;;;;;13.35;42.27;98544.61;106943;1267;137138;-68
2022/04/09 11:28:41;;;;;;;6.40;3.90;;;;;;;13.52;41.84;98547.20;107063;1267;111052;-68
2022/04/09 11:31:20;;;;;;;6.70;3.30;;;;;;;13.62;41.12;98544.92;107097;1267;137698;-69
2022/04/09 11:33:58;;;;;;;6.60;3.30;;;;;;;13.70;41.04;98551.02;107912;1266;108803;-69
2022/04/09 11:36:30;;;;;;;4.80;2.90;;;;;;;13.78;41.07;98564.22;107781;1268;137464;-74
2022/04/09 11:39:02;;;;;;;6.30;2.60;;;;;;;13.77;40.13;98562.73;107877;1267;94767;-71
2022/04/09 11:41:34;;;;;;;5.80;2.60;;;;;;;13.68;39.53;98569.85;107970;1267;111005;-71
2022/04/09 11:44:08;;;;;;;6.00;2.10;;;;;;;13.45;39.10;98574.82;107771;1268;138487;-71
2022/04/09 11:46:46;;;;;;;4.30;2.30;;;;;;;13.30;39.25;98583.35;107272;1268;108777;-74
2022/04/09 11:49:18;;;;;;;3.30;1.80;;;;;;;13.17;39.20;98592.65;106346;1268;137520;-70
2022/04/09 11:51:56;;;;;;;5.60;2.40;;;;;;;13.02;38.71;98584.36;106544;1268;96497;-71